Hondo, Texas
Current Conditions -  °F | °C
As of 5:51 AM on Monday 26 Jan 2015 (Local Time) from KHDO Reporting Station
Clear Clear  
Wind Chill:   Ceiling: Unl
Heat Index:   Visibility: 10mi
Dew Point:   Wind: 7mph
Humidity: 73%   Direction: 340°NNW
Pressure: 30.27"   Gusts: NA
Location:  29.35°N, 99.14°W
Report Text: KHDO 261151Z AUTO 34006KT 10SM CLR 04/00 A3027 RMK AO2 SLP244 T00440000 10072 20039 51004
Loading
Personal Weather Stations






























Interactive Weather Map New forecast layout! Learn more

10-Day Weather Forecast

Advertisements
Track Severe Weather on mobile